Porter County Municipal Airport
KVPZ : now visible

Airfield :











YOU CAN JOIN US ON...

 
LOGIN :

Register | Disclaimer

   EN    FR    IT 

 









Legend :    VFR   Marginal VFR   IFR   Intensive IFR   Very Intensive IFR
Visi :
Ceiling :
>= 8 km
>= 3000ft
5 to 8 km
1000 to 3000 ft
1500m to 5 km
500 to 1000 ft
800 to 1500m
200 to 500 ft
< 800m
< 200 ft
Symbols :   Thunderstorms  Fog  Heavy snow  Heavy precipitations  Wind > 20 kt






- Airport Elevation : 770 ft


KVPZ - Porter County Municipal

CURRENT METAR :
  • 281656Z AUTO 27005KT 5SM BR OVC019 M01/M02 A3010 RMK AO2 SLP201 T10061022

EXPIRED METARs :
  • 281556Z AUTO 26005KT 5SM BR OVC016 M01/M02 A3010 RMK AO2 SLP201 T10061022
  • 281456Z AUTO 25004KT 4SM BR OVC015 M01/M02 A3009 RMK AO2 UPE03B12E14B34E44SNB03E12B33E34 SLP199 P0000 60000 T10061022 51010
  • 281443Z AUTO 25005KT 3SM UP BR OVC017 M01/M02 A3009 RMK AO2 UPE03B12E14B34SNB03E12B33E34 P0000 T10061022
  • 281425Z AUTO 27005KT 3SM BR FEW010 SCT013 OVC020 M01/M02 A3009 RMK AO2 UPE03B12E14SNB03E12 P0000 T10061022
  • 281417Z AUTO 27005KT 2 1/2SM BR FEW010 BKN015 OVC020 M01/M02 A3009 RMK AO2 UPE03B12E14SNB03E12 P0000 T10061022
  • 281408Z AUTO 27004KT 2 1/2SM -SN BR SCT010 OVC014 M01/M02 A3009 RMK AO2 UPE03SNB03 P0000 T10061022

TAF N/A



MET'MAP, your aeronautical weather chart ! - Copyright ORBIFLY December 2007 - Disclaimer

ORBIFLY MET'MAP TEAM :

Programming & Development : Alexandra Zaïnal
Concept & original design : Baudouin d'Aumeries
Assistance for programming : Marc-Olivier Méhu
Technical & hardware support : Manuel Goepfert

Contact : metmap@orbifly.com




SOURCES & CREDITS :

   NOAA       Earth
Advisory